Time;durP1;ratioP1;P1;durP2;ratioP2;P2;SDS_P1;SDS_P2;PMS_P1;PMS_P2;Temp;Humidity;BMP_temperature;BMP_pressure;BME280_temperature;BME280_humidity;BME280_pressure;Samples;Min_cycle;Max_cycle;Signal;HPM_P1;HPM_P2
2023/08/27 00:01:38;;;;;;;10.40;6.70;;;17.50;73.60;;;;;;5069516;28;20276;-67
2023/08/27 00:04:06;;;;;;;11.17;6.93;;;17.60;73.30;;;;;;5071649;28;20272;-66
2023/08/27 00:06:33;;;;;;;8.27;6.07;;;17.80;73.10;;;;;;5070192;28;20186;-68
2023/08/27 00:09:01;;;;;;;7.50;5.43;;;17.80;72.50;;;;;;5069037;28;20548;-67
2023/08/27 00:11:28;;;;;;;9.97;6.53;;;18.00;72.10;;;;;;5068249;28;20253;-68
2023/08/27 00:13:55;;;;;;;14.83;4.90;;;18.10;71.20;;;;;;5067119;28;20186;-67
2023/08/27 00:16:23;;;;;;;9.07;5.43;;;18.20;70.80;;;;;;5074266;28;20224;-68
2023/08/27 00:18:50;;;;;;;6.97;3.90;;;18.30;70.00;;;;;;5075011;28;20206;-66
2023/08/27 00:21:17;;;;;;;6.30;3.53;;;18.30;69.40;;;;;;5070411;28;20197;-66
2023/08/27 00:23:44;;;;;;;4.37;3.50;;;18.20;68.90;;;;;;5072365;28;20187;-65
2023/08/27 00:26:13;;;;;;;8.00;4.37;;;18.30;69.70;;;;;;5071107;28;20186;-69
2023/08/27 00:28:40;;;;;;;7.23;3.97;;;18.50;68.90;;;;;;5071699;28;20184;-68
2023/08/27 00:31:08;;;;;;;5.63;3.70;;;18.50;68.50;;;;;;5074197;28;20179;-69
2023/08/27 00:33:38;;;;;;;5.20;4.03;;;18.50;69.40;;;;;;5070300;28;20211;-66
2023/08/27 00:36:06;;;;;;;7.60;3.57;;;18.60;68.40;;;;;;5074069;28;20280;-66
2023/08/27 00:38:33;;;;;;;4.30;2.77;;;18.60;67.90;;;;;;5072818;28;20183;-70
2023/08/27 00:41:00;;;;;;;6.47;3.50;;;18.80;67.00;;;;;;5073921;28;20597;-68
2023/08/27 00:43:28;;;;;;;5.77;3.60;;;18.90;65.50;;;;;;5070716;28;20193;-68
2023/08/27 00:45:56;;;;;;;6.07;3.37;;;18.80;65.80;;;;;;5071951;28;20229;-71
2023/08/27 00:48:23;;;;;;;7.07;3.40;;;18.70;66.00;;;;;;5073007;28;20211;-68
2023/08/27 00:50:51;;;;;;;5.43;3.57;;;18.90;66.40;;;;;;5072590;28;20555;-66
2023/08/27 00:53:19;;;;;;;7.83;3.50;;;19.10;64.50;;;;;;5074283;28;20241;-70
2023/08/27 00:55:46;;;;;;;5.40;3.50;;;19.20;65.10;;;;;;5073781;28;20214;-66
2023/08/27 00:58:13;;;;;;;5.83;3.57;;;19.20;64.30;;;;;;5074409;28;20186;-71
2023/08/27 01:00:42;;;;;;;7.67;3.17;;;19.10;64.70;;;;;;5074292;28;20692;-68
2023/08/27 01:03:09;;;;;;;5.00;2.80;;;19.30;64.80;;;;;;5073490;28;20665;-71
2023/08/27 01:05:37;;;;;;;6.10;3.03;;;19.40;63.70;;;;;;5065617;28;20218;-69
2023/08/27 01:12:17;;;;;;;4.43;3.07;;;19.70;63.70;;;;;;5072026;28;20265;-68
2023/08/27 01:14:48;;;;;;;6.03;3.23;;;19.80;62.60;;;;;;4992686;28;20220;-66
2023/08/27 01:17:19;;;;;;;7.27;3.20;;;19.80;63.10;;;;;;5068859;28;20241;-72
2023/08/27 01:19:48;;;;;;;7.60;3.63;;;20.00;63.30;;;;;;5073775;28;20179;-71
2023/08/27 01:22:16;;;;;;;7.93;3.67;;;19.80;62.70;;;;;;5072774;28;20187;-72
2023/08/27 01:24:44;;;;;;;7.43;3.70;;;19.70;62.70;;;;;;5073684;28;20175;-71
2023/08/27 01:27:24;;;;;;;4.47;3.30;;;20.00;63.00;;;;;;5072648;28;20210;-69
2023/08/27 01:29:57;;;;;;;8.63;3.47;;;19.80;62.70;;;;;;5069558;28;20185;-66
2023/08/27 01:32:44;;;;;;;6.27;3.60;;;19.90;62.70;;;;;;5070296;28;20227;-65
2023/08/27 01:35:13;;;;;;;6.97;3.83;;;20.00;62.60;;;;;;5073176;28;20202;-67
2023/08/27 01:37:40;;;;;;;6.57;3.53;;;20.30;62.80;;;;;;5072144;28;20217;-66
2023/08/27 01:40:09;;;;;;;5.43;3.70;;;20.50;61.50;;;;;;5073219;28;20191;-67
2023/08/27 01:42:37;;;;;;;6.40;3.70;;;20.80;61.50;;;;;;5073417;28;20183;-66
2023/08/27 01:45:08;;;;;;;8.47;3.87;;;20.90;60.00;;;;;;5073876;28;20219;-66
2023/08/27 01:47:36;;;;;;;5.77;3.50;;;20.90;60.30;;;;;;5072103;28;20669;-68
2023/08/27 01:50:03;;;;;;;5.43;3.17;;;21.10;59.00;;;;;;5073779;28;20213;-67
2023/08/27 01:52:31;;;;;;;6.63;3.80;;;20.90;59.00;;;;;;5073713;28;20316;-70
2023/08/27 01:54:58;;;;;;;8.23;4.73;;;20.80;60.00;;;;;;5074537;28;20219;-72
2023/08/27 01:57:26;;;;;;;5.97;3.60;;;21.30;58.30;;;;;;5075135;28;20187;-73
2023/08/27 01:59:53;;;;;;;7.10;3.57;;;21.50;57.10;;;;;;5075209;28;20210;-73
2023/08/27 02:02:21;;;;;;;7.17;3.57;;;21.50;56.40;;;;;;5074769;28;20179;-73
2023/08/27 02:04:49;;;;;;;5.67;2.90;;;21.80;56.50;;;;;;5074426;28;20191;-72
2023/08/27 02:07:18;;;;;;;7.43;3.30;;;21.90;56.10;;;;;;5073105;28;20646;-73
2023/08/27 02:09:45;;;;;;;6.00;3.00;;;21.70;55.80;;;;;;5074534;28;20536;-71
2023/08/27 02:12:12;;;;;;;5.83;3.33;;;21.70;57.30;;;;;;5072059;28;20611;-72
2023/08/27 02:14:40;;;;;;;7.33;3.57;;;22.00;56.00;;;;;;5072630;28;20206;-66
2023/08/27 02:17:07;;;;;;;6.33;3.20;;;22.20;55.60;;;;;;5077057;28;20244;-70
2023/08/27 02:19:34;;;;;;;6.17;2.57;;;22.00;54.90;;;;;;5071152;28;20221;-71
2023/08/27 02:22:02;;;;;;;4.13;2.53;;;21.80;55.40;;;;;;5073927;28;20509;-74
2023/08/27 02:24:29;;;;;;;7.03;2.73;;;22.10;54.50;;;;;;5073510;28;20649;-74
2023/08/27 02:26:56;;;;;;;5.33;2.43;;;21.60;56.20;;;;;;5071743;28;20187;-71
2023/08/27 02:29:24;;;;;;;3.53;2.50;;;21.90;56.00;;;;;;5072862;28;20179;-72
2023/08/27 02:31:51;;;;;;;5.33;2.50;;;22.30;54.50;;;;;;5073146;28;20251;-72
2023/08/27 02:34:21;;;;;;;10.10;2.60;;;22.10;55.30;;;;;;5073901;28;20182;-72
2023/08/27 02:36:48;;;;;;;4.03;1.93;;;21.80;55.50;;;;;;5069812;28;20266;-74
2023/08/27 02:39:15;;;;;;;4.67;2.00;;;22.30;54.70;;;;;;5069809;28;20199;-72
2023/08/27 02:41:43;;;;;;;10.23;2.87;;;22.50;54.40;;;;;;5071189;28;20211;-74
2023/08/27 02:44:10;;;;;;;4.77;2.20;;;22.50;55.30;;;;;;5072469;28;20194;-72
2023/08/27 02:46:37;;;;;;;5.83;2.37;;;22.30;55.60;;;;;;5069313;28;20179;-73
2023/08/27 02:49:05;;;;;;;4.57;2.00;;;22.30;55.20;;;;;;5066966;28;20912;-73
2023/08/27 02:51:32;;;;;;;5.60;1.87;;;22.30;55.60;;;;;;5071032;28;20261;-71
2023/08/27 02:53:59;;;;;;;4.33;1.70;;;22.30;56.00;;;;;;5072576;28;20179;-74
2023/08/27 02:56:26;;;;;;;3.53;1.70;;;22.20;55.00;;;;;;5072862;28;20222;-72
2023/08/27 02:58:54;;;;;;;2.70;1.50;;;22.30;54.80;;;;;;5072559;28;20187;-71
2023/08/27 03:01:21;;;;;;;3.73;1.37;;;22.30;54.40;;;;;;5072767;28;20187;-74
2023/08/27 03:03:50;;;;;;;1.93;1.23;;;22.80;52.60;;;;;;5070257;28;20168;-66
2023/08/27 03:06:18;;;;;;;10.27;1.83;;;22.90;53.10;;;;;;5071288;28;20183;-68
2023/08/27 03:08:45;;;;;;;3.07;1.30;;;23.10;51.60;;;;;;5071811;28;20185;-65
2023/08/27 03:11:12;;;;;;;2.47;1.40;;;23.30;50.80;;;;;;5072141;28;20195;-67
2023/08/27 03:13:40;;;;;;;3.50;1.80;;;23.30;50.90;;;;;;5071871;28;20179;-65
2023/08/27 03:16:07;;;;;;;4.03;1.33;;;23.10;50.80;;;;;;5071974;28;20265;-65
2023/08/27 03:18:35;;;;;;;3.53;1.40;;;22.80;51.80;;;;;;5072605;28;20229;-68
2023/08/27 03:21:02;;;;;;;2.80;1.30;;;23.00;51.60;;;;;;5071800;28;20596;-66
2023/08/27 03:23:34;;;;;;;4.33;1.30;;;22.90;52.30;;;;;;5072012;28;20248;-64
2023/08/27 03:26:01;;;;;;;4.43;1.50;;;22.60;53.50;;;;;;5070772;28;20186;-67
2023/08/27 03:28:28;;;;;;;3.00;1.30;;;23.00;52.30;;;;;;5072586;28;20308;-68
2023/08/27 03:30:56;;;;;;;3.20;1.50;;;22.80;52.30;;;;;;5071475;28;20641;-65
2023/08/27 03:33:23;;;;;;;4.60;1.37;;;22.70;52.00;;;;;;5072656;28;20199;-66
2023/08/27 03:35:56;;;;;;;3.27;1.40;;;22.70;52.80;;;;;;5070950;28;20282;-66
2023/08/27 03:38:23;;;;;;;3.63;1.50;;;22.40;53.20;;;;;;5065693;28;20652;-66
2023/08/27 03:40:52;;;;;;;3.40;1.23;;;22.60;52.60;;;;;;5071395;28;20183;-65
2023/08/27 03:43:19;;;;;;;5.53;1.40;;;22.80;51.90;;;;;;5065260;28;20558;-66
2023/08/27 03:45:47;;;;;;;3.57;1.07;;;22.40;52.10;;;;;;5071439;28;20320;-68
2023/08/27 03:48:14;;;;;;;2.17;1.13;;;22.50;52.80;;;;;;5071577;28;20184;-67
2023/08/27 03:50:41;;;;;;;3.73;1.23;;;22.50;52.70;;;;;;5071159;28;20183;-65
2023/08/27 03:53:10;;;;;;;1.73;1.20;;;22.90;51.90;;;;;;5071986;28;20285;-66
2023/08/27 03:55:41;;;;;;;3.17;1.17;;;22.80;51.30;;;;;;5070336;28;20576;-71
2023/08/27 03:58:09;;;;;;;2.27;1.20;;;22.80;51.20;;;;;;5071469;28;20286;-70
2023/08/27 04:00:37;;;;;;;9.80;1.50;;;22.60;52.20;;;;;;5070570;28;20183;-69
2023/08/27 04:03:08;;;;;;;5.13;1.23;;;23.30;51.30;;;;;;5071626;28;20195;-66
2023/08/27 04:05:37;;;;;;;3.60;1.20;;;23.30;50.80;;;;;;5071568;28;20191;-71
2023/08/27 04:08:06;;;;;;;2.70;1.20;;;23.30;50.80;;;;;;5071384;28;20317;-68
2023/08/27 04:10:33;;;;;;;2.67;1.13;;;23.70;49.80;;;;;;5071726;28;20195;-67
2023/08/27 04:13:01;;;;;;;2.07;1.20;;;23.70;49.90;;;;;;5071509;28;20171;-71
2023/08/27 04:15:28;;;;;;;4.07;1.20;;;23.90;48.60;;;;;;5071525;28;20214;-70
2023/08/27 04:17:56;;;;;;;3.77;1.07;;;24.10;48.50;;;;;;5071295;28;20186;-71
2023/08/27 04:20:23;;;;;;;4.67;1.00;;;24.10;47.60;;;;;;5071742;28;20190;-69
2023/08/27 04:22:50;;;;;;;3.00;1.30;;;24.10;48.20;;;;;;5068519;28;20272;-70
2023/08/27 04:25:18;;;;;;;4.47;1.20;;;24.30;47.60;;;;;;5071872;28;20530;-71
2023/08/27 04:27:45;;;;;;;2.87;1.30;;;24.80;46.80;;;;;;5071278;28;20183;-72
2023/08/27 04:30:13;;;;;;;1.77;1.00;;;24.80;46.30;;;;;;5071910;28;20183;-71
2023/08/27 04:32:41;;;;;;;4.07;1.20;;;24.50;47.20;;;;;;5069901;28;20218;-72
2023/08/27 04:35:08;;;;;;;2.40;1.20;;;24.10;48.00;;;;;;5071790;28;20906;-72
2023/08/27 04:37:36;;;;;;;3.03;1.27;;;24.30;47.90;;;;;;5070711;28;20182;-72
2023/08/27 04:40:04;;;;;;;3.20;1.40;;;23.40;49.50;;;;;;5071512;28;20233;-67
2023/08/27 04:42:31;;;;;;;3.13;1.30;;;23.60;50.60;;;;;;5069767;28;20564;-68
2023/08/27 04:44:58;;;;;;;2.10;1.20;;;23.90;50.00;;;;;;5071561;28;20262;-74
2023/08/27 04:47:26;;;;;;;3.80;1.50;;;23.80;50.10;;;;;;5068222;28;20239;-68
2023/08/27 04:49:53;;;;;;;5.03;1.37;;;24.30;48.90;;;;;;5070853;28;20183;-67
2023/08/27 04:52:20;;;;;;;3.23;1.30;;;24.30;48.40;;;;;;5071495;28;20637;-70
2023/08/27 04:54:47;;;;;;;3.37;1.30;;;24.30;48.60;;;;;;5071159;28;20209;-69
2023/08/27 04:57:15;;;;;;;4.30;1.20;;;24.50;47.70;;;;;;5070160;28;20206;-67
2023/08/27 04:59:42;;;;;;;3.53;1.50;;;24.50;47.70;;;;;;5067422;28;20183;-72
2023/08/27 05:02:09;;;;;;;2.00;1.20;;;24.60;47.60;;;;;;5074664;28;20638;-69
2023/08/27 05:04:37;;;;;;;5.23;1.10;;;25.40;45.20;;;;;;5074822;28;20248;-69
2023/08/27 05:07:04;;;;;;;3.50;1.20;;;25.30;43.80;;;;;;5074471;28;20187;-66
2023/08/27 05:09:32;;;;;;;5.80;1.50;;;25.00;45.60;;;;;;5074570;28;20183;-66
2023/08/27 05:11:59;;;;;;;1.67;0.90;;;24.70;46.70;;;;;;5074409;28;20179;-70
2023/08/27 05:14:26;;;;;;;2.43;1.03;;;24.60;46.40;;;;;;5073577;28;20311;-69
2023/08/27 05:16:53;;;;;;;6.60;1.17;;;24.30;46.90;;;;;;5074702;28;20496;-67
2023/08/27 05:19:21;;;;;;;2.40;0.80;;;23.90;47.20;;;;;;5074779;28;20270;-71
2023/08/27 05:21:48;;;;;;;2.67;1.03;;;24.00;47.40;;;;;;5074432;28;20183;-66
2023/08/27 05:24:15;;;;;;;4.77;1.20;;;24.40;46.30;;;;;;5073533;28;20175;-70
2023/08/27 05:26:43;;;;;;;3.17;1.17;;;24.60;46.10;;;;;;5074392;28;20233;-69
2023/08/27 05:29:10;;;;;;;3.80;1.10;;;24.70;46.30;;;;;;5074298;28;20183;-71
2023/08/27 05:31:37;;;;;;;2.47;1.00;;;24.80;45.70;;;;;;5074049;28;20302;-70
2023/08/27 05:34:05;;;;;;;2.63;1.10;;;24.80;45.70;;;;;;5073972;28;20614;-69
2023/08/27 05:36:32;;;;;;;2.83;1.10;;;24.60;46.50;;;;;;5070761;28;20211;-69
2023/08/27 05:38:59;;;;;;;3.70;1.03;;;24.40;46.70;;;;;;5073866;28;20213;-65
2023/08/27 05:41:28;;;;;;;2.07;0.80;;;24.00;47.70;;;;;;5072920;28;20232;-70
2023/08/27 05:43:55;;;;;;;2.30;0.80;;;24.30;47.30;;;;;;5073830;28;20183;-71
2023/08/27 05:46:23;;;;;;;1.83;1.00;;;24.30;47.00;;;;;;5074090;28;20191;-70
2023/08/27 05:48:51;;;;;;;2.33;1.10;;;24.50;46.10;;;;;;5074015;28;20179;-70
2023/08/27 05:51:18;;;;;;;2.60;1.10;;;24.30;46.80;;;;;;5071968;28;20183;-66
2023/08/27 05:53:46;;;;;;;1.87;0.90;;;23.80;47.20;;;;;;5072430;28;20219;-65
2023/08/27 05:56:13;;;;;;;4.03;1.20;;;23.30;48.40;;;;;;5072351;28;20689;-69
2023/08/27 05:58:40;;;;;;;4.30;1.17;;;23.80;47.40;;;;;;5072514;28;20190;-68
2023/08/27 06:01:08;;;;;;;3.20;1.20;;;23.60;48.20;;;;;;5071742;28;20195;-68
2023/08/27 06:03:35;;;;;;;7.07;1.20;;;23.70;48.10;;;;;;5073266;28;20187;-73
2023/08/27 06:06:02;;;;;;;3.40;0.90;;;23.70;47.60;;;;;;5073153;28;20189;-73
2023/08/27 06:08:30;;;;;;;5.27;0.93;;;23.50;48.30;;;;;;5075154;28;20247;-73
2023/08/27 06:10:57;;;;;;;1.97;0.97;;;23.80;47.50;;;;;;5073159;28;20183;-74
2023/08/27 06:13:24;;;;;;;4.10;1.30;;;23.70;48.10;;;;;;5072967;28;20198;-73
2023/08/27 06:15:52;;;;;;;1.80;0.90;;;23.50;48.90;;;;;;5073729;28;20221;-73
2023/08/27 06:18:19;;;;;;;5.50;1.10;;;23.20;48.80;;;;;;5074440;28;20191;-74
2023/08/27 06:20:46;;;;;;;3.10;1.30;;;22.50;51.10;;;;;;5074860;28;20217;-72
2023/08/27 06:23:14;;;;;;;4.57;1.40;;;22.40;51.60;;;;;;5066543;28;20180;-72
2023/08/27 06:25:42;;;;;;;2.70;1.10;;;22.30;52.20;;;;;;5072782;28;20179;-71
2023/08/27 06:28:11;;;;;;;2.73;1.00;;;21.90;53.40;;;;;;5071375;28;20322;-72
2023/08/27 06:30:42;;;;;;;2.57;1.23;;;20.80;56.20;;;;;;5069909;28;20191;-73
2023/08/27 06:33:09;;;;;;;4.60;0.77;;;20.00;58.70;;;;;;5072340;28;20309;-72
2023/08/27 06:35:37;;;;;;;4.20;1.10;;;19.60;60.80;;;;;;5072663;28;20215;-72
2023/08/27 06:38:05;;;;;;;3.27;1.20;;;19.30;61.50;;;;;;5072605;28;20655;-70
2023/08/27 06:40:33;;;;;;;4.33;1.20;;;19.10;63.00;;;;;;5073452;28;20249;-66
2023/08/27 06:43:00;;;;;;;2.77;1.13;;;18.90;63.40;;;;;;5071353;28;20185;-73
2023/08/27 06:45:28;;;;;;;2.27;1.10;;;18.80;64.00;;;;;;5072307;28;20180;-66
2023/08/27 06:47:56;;;;;;;2.17;1.20;;;18.80;64.60;;;;;;5071085;28;20179;-65
2023/08/27 06:50:23;;;;;;;5.50;1.40;;;18.80;64.60;;;;;;5070668;28;20183;-70
2023/08/27 06:52:50;;;;;;;3.80;1.43;;;18.70;64.70;;;;;;5071948;28;20278;-73
2023/08/27 06:55:18;;;;;;;5.57;1.23;;;18.50;65.20;;;;;;5067075;28;20215;-71
2023/08/27 06:57:45;;;;;;;3.40;1.30;;;18.40;65.80;;;;;;5072085;28;20190;-72
2023/08/27 07:00:13;;;;;;;5.93;1.40;;;18.30;66.00;;;;;;5071169;28;20198;-72
2023/08/27 07:02:40;;;;;;;3.33;1.13;;;18.20;66.30;;;;;;5071165;28;20235;-72
2023/08/27 07:05:11;;;;;;;5.37;1.27;;;18.20;66.90;;;;;;5072980;28;20191;-73
2023/08/27 07:07:39;;;;;;;2.43;1.40;;;18.20;67.10;;;;;;5071818;28;20528;-72
2023/08/27 07:10:08;;;;;;;2.20;1.30;;;18.20;67.50;;;;;;5070166;28;20194;-70
2023/08/27 07:12:37;;;;;;;5.23;1.80;;;18.10;67.30;;;;;;5074068;28;20187;-71
2023/08/27 07:15:08;;;;;;;2.87;1.03;;;18.10;67.60;;;;;;5070617;28;20226;-71
2023/08/27 07:17:36;;;;;;;3.40;1.20;;;18.00;67.60;;;;;;5072141;28;20187;-71
2023/08/27 07:20:07;;;;;;;4.53;1.40;;;18.00;67.90;;;;;;5070005;28;20529;-72
2023/08/27 07:22:35;;;;;;;4.17;1.50;;;17.90;68.20;;;;;;5071874;28;20222;-71
2023/08/27 07:25:03;;;;;;;6.43;1.77;;;17.90;68.40;;;;;;5070478;28;20274;-69
2023/08/27 07:27:31;;;;;;;3.63;1.60;;;17.90;68.70;;;;;;5071275;28;20175;-72
2023/08/27 07:29:58;;;;;;;3.43;1.70;;;17.90;68.80;;;;;;5070186;28;20432;-72
2023/08/27 07:32:25;;;;;;;5.03;1.57;;;17.90;69.10;;;;;;5072013;28;20811;-72
2023/08/27 07:34:53;;;;;;;5.83;1.90;;;17.90;69.10;;;;;;5068991;28;20294;-68
2023/08/27 07:37:20;;;;;;;3.07;1.57;;;17.80;69.10;;;;;;5069573;28;20582;-67
2023/08/27 07:39:48;;;;;;;4.07;1.40;;;17.80;69.20;;;;;;5070534;28;20194;-71
2023/08/27 07:42:15;;;;;;;4.87;1.53;;;17.80;69.30;;;;;;5071202;28;20274;-70
2023/08/27 07:44:42;;;;;;;2.97;1.50;;;17.80;69.40;;;;;;5072088;28;20209;-70
2023/08/27 07:47:10;;;;;;;3.63;1.50;;;17.80;69.50;;;;;;5071134;28;20638;-67
2023/08/27 07:49:37;;;;;;;3.87;1.60;;;17.70;69.70;;;;;;5071359;28;20272;-70
2023/08/27 07:52:04;;;;;;;3.23;1.13;;;17.80;69.70;;;;;;5068988;28;20577;-73
2023/08/27 07:54:32;;;;;;;3.10;1.20;;;17.70;69.60;;;;;;5073217;28;20252;-72
2023/08/27 07:56:59;;;;;;;3.43;1.20;;;17.70;69.80;;;;;;5074446;28;20649;-72
2023/08/27 07:59:26;;;;;;;3.87;1.37;;;17.60;69.90;;;;;;5071955;28;20237;-66
2023/08/27 08:01:54;;;;;;;2.40;1.50;;;17.60;70.10;;;;;;5073514;28;20217;-72
2023/08/27 08:04:21;;;;;;;3.60;1.20;;;17.60;70.40;;;;;;5071162;28;20574;-67
2023/08/27 08:06:48;;;;;;;4.70;1.40;;;17.50;70.60;;;;;;5070965;28;20194;-68
2023/08/27 08:09:16;;;;;;;5.23;1.90;;;17.50;70.50;;;;;;5069771;28;20191;-71
2023/08/27 08:11:43;;;;;;;3.77;2.03;;;17.50;70.60;;;;;;5065052;28;20192;-68
2023/08/27 08:14:10;;;;;;;5.83;1.93;;;17.50;71.00;;;;;;5066805;28;20191;-71
2023/08/27 08:16:38;;;;;;;3.10;2.00;;;17.40;71.70;;;;;;5071128;28;20226;-67
2023/08/27 08:19:05;;;;;;;6.70;1.93;;;17.40;72.20;;;;;;5071294;28;20642;-66
2023/08/27 08:21:32;;;;;;;1.73;1.30;;;17.40;72.70;;;;;;5069850;28;20186;-68
2023/08/27 08:24:00;;;;;;;2.50;1.70;;;17.40;73.40;;;;;;5069593;28;20184;-66
2023/08/27 08:26:27;;;;;;;5.60;1.60;;;17.40;74.10;;;;;;5071767;28;20656;-64
2023/08/27 08:28:55;;;;;;;4.90;1.60;;;17.30;74.60;;;;;;5073893;28;20190;-68
2023/08/27 08:31:23;;;;;;;5.40;1.67;;;17.30;75.10;;;;;;5066955;28;20238;-67
2023/08/27 08:33:50;;;;;;;5.97;1.83;;;17.30;75.30;;;;;;5068445;28;20239;-65
2023/08/27 08:36:17;;;;;;;6.77;1.60;;;17.30;75.80;;;;;;5077701;28;20221;-65
2023/08/27 08:38:44;;;;;;;3.87;1.40;;;17.30;76.10;;;;;;5075467;28;20186;-67
2023/08/27 08:41:15;;;;;;;4.00;1.70;;;17.20;76.40;;;;;;5073216;28;20202;-65
2023/08/27 08:43:52;;;;;;;2.70;1.37;;;17.20;76.60;;;;;;5075682;28;20645;-65
2023/08/27 08:46:20;;;;;;;5.07;1.73;;;17.20;76.60;;;;;;5088095;28;20213;-66
2023/08/27 08:48:51;;;;;;;4.10;1.70;;;17.10;76.60;;;;;;5074057;28;20190;-66
2023/08/27 08:51:26;;;;;;;5.40;1.80;;;17.10;76.70;;;;;;5070970;28;20197;-66
2023/08/27 08:53:59;;;;;;;5.97;1.67;;;17.10;76.70;;;;;;5073699;28;20201;-66
2023/08/27 08:56:41;;;;;;;3.10;1.30;;;17.10;76.80;;;;;;5073423;28;20727;-65
2023/08/27 08:59:08;;;;;;;5.50;1.90;;;17.10;76.80;;;;;;5074888;28;20736;-67
2023/08/27 09:01:37;;;;;;;7.23;2.00;;;17.10;77.00;;;;;;5072862;28;20218;-66
2023/08/27 09:04:06;;;;;;;5.03;1.90;;;17.10;77.10;;;;;;5067023;28;20194;-66
2023/08/27 09:06:34;;;;;;;4.17;1.93;;;17.00;77.30;;;;;;5080004;28;20179;-68
2023/08/27 09:09:02;;;;;;;6.13;1.80;;;17.00;77.50;;;;;;5074203;28;20175;-71
2023/08/27 09:11:32;;;;;;;4.17;1.83;;;17.00;77.60;;;;;;5067339;28;20198;-69
2023/08/27 09:14:03;;;;;;;2.90;1.57;;;17.00;77.70;;;;;;5072861;28;20243;-71
2023/08/27 09:16:31;;;;;;;5.83;2.03;;;16.90;77.90;;;;;;5073980;28;20215;-72
2023/08/27 09:18:58;;;;;;;5.80;2.13;;;16.90;78.10;;;;;;5073618;28;20546;-74
2023/08/27 09:21:26;;;;;;;3.63;1.80;;;16.90;78.30;;;;;;5072445;28;20187;-72
2023/08/27 09:23:55;;;;;;;2.70;1.43;;;16.90;78.50;;;;;;5074456;28;20194;-75
2023/08/27 09:26:22;;;;;;;3.20;2.07;;;16.90;78.60;;;;;;5074760;28;20646;-73
2023/08/27 09:28:50;;;;;;;5.47;1.83;;;16.80;78.70;;;;;;5077141;28;20658;-70
2023/08/27 09:31:42;;;;;;;5.10;2.10;;;16.90;78.80;;;;;;5079885;28;20226;-74
2023/08/27 09:34:11;;;;;;;7.17;2.43;;;16.80;78.80;;;;;;5073708;28;20198;-72
2023/08/27 09:36:38;;;;;;;6.80;2.20;;;16.80;78.90;;;;;;5074211;28;20210;-73
2023/08/27 09:39:13;;;;;;;3.97;1.90;;;16.80;79.00;;;;;;5074316;28;20231;-73
2023/08/27 09:41:45;;;;;;;4.33;1.90;;;16.80;79.10;;;;;;5073786;28;20189;-74
2023/08/27 09:44:14;;;;;;;6.80;2.67;;;16.80;79.20;;;;;;5073359;28;20202;-73
2023/08/27 09:46:42;;;;;;;5.53;2.33;;;16.70;79.30;;;;;;5085983;28;20181;-73
2023/08/27 09:49:09;;;;;;;5.17;2.00;;;16.70;79.50;;;;;;5073606;28;20190;-73
2023/08/27 09:51:41;;;;;;;6.63;2.00;;;16.70;79.50;;;;;;5073472;28;20198;-71
2023/08/27 09:54:22;;;;;;;5.23;1.80;;;16.70;79.60;;;;;;5073282;28;20190;-72
2023/08/27 09:56:51;;;;;;;5.33;1.80;;;16.70;79.80;;;;;;5070384;28;20271;-71
2023/08/27 09:59:21;;;;;;;3.30;1.90;;;16.60;79.80;;;;;;5071880;28;20190;-74
2023/08/27 10:01:50;;;;;;;6.17;2.00;;;16.60;79.90;;;;;;5072856;28;20570;-72
2023/08/27 10:04:18;;;;;;;6.20;2.13;;;16.70;80.00;;;;;;5077165;28;20574;-73
2023/08/27 10:06:46;;;;;;;6.57;2.23;;;16.70;80.00;;;;;;5071955;28;20179;-71
2023/08/27 10:09:15;;;;;;;6.50;2.07;;;16.60;80.10;;;;;;5067088;28;20189;-73
2023/08/27 10:11:45;;;;;;;5.90;2.07;;;16.60;80.20;;;;;;5071483;28;20294;-71
2023/08/27 10:14:18;;;;;;;3.53;2.23;;;16.50;80.30;;;;;;5072377;28;20711;-71
2023/08/27 10:16:46;;;;;;;4.30;2.10;;;16.50;80.40;;;;;;5077645;28;20309;-72
2023/08/27 10:19:13;;;;;;;3.30;1.93;;;16.50;80.50;;;;;;5080510;28;20190;-75
2023/08/27 10:21:41;;;;;;;6.00;2.30;;;16.50;80.60;;;;;;5074952;28;20327;-74
2023/08/27 10:24:11;;;;;;;3.67;2.20;;;16.50;80.80;;;;;;5078349;28;20186;-70
2023/08/27 10:26:38;;;;;;;5.03;2.60;;;16.50;80.90;;;;;;5075271;28;20637;-73
2023/08/27 10:29:07;;;;;;;5.97;2.30;;;16.50;80.90;;;;;;5075181;28;20277;-74
2023/08/27 10:31:35;;;;;;;7.73;2.90;;;16.40;81.20;;;;;;5071815;28;20816;-73
2023/08/27 10:34:03;;;;;;;5.43;3.00;;;16.40;81.10;;;;;;5071521;28;20597;-73
2023/08/27 10:36:36;;;;;;;7.10;2.80;;;16.40;81.10;;;;;;5071149;28;20264;-72
2023/08/27 10:39:07;;;;;;;8.13;3.57;;;16.30;81.20;;;;;;5072610;28;20186;-73
2023/08/27 10:41:35;;;;;;;7.27;2.90;;;16.40;81.30;;;;;;5068985;28;20182;-72
2023/08/27 10:44:03;;;;;;;4.07;2.27;;;16.30;81.30;;;;;;5075082;28;20640;-74
2023/08/27 10:46:30;;;;;;;5.03;2.97;;;16.30;81.40;;;;;;5069249;28;20182;-70
2023/08/27 10:48:58;;;;;;;3.57;2.87;;;16.30;81.30;;;;;;5075134;28;20185;-72
2023/08/27 10:51:32;;;;;;;7.30;2.83;;;16.30;81.50;;;;;;5069218;28;20194;-75
2023/08/27 10:54:01;;;;;;;6.73;2.70;;;16.30;81.60;;;;;;5072207;28;20183;-73
2023/08/27 10:56:38;;;;;;;5.10;3.00;;;16.30;81.70;;;;;;5071438;28;20212;-72
2023/08/27 10:59:26;;;;;;;3.70;3.03;;;16.30;81.70;;;;;;5070777;28;20572;-71
2023/08/27 11:02:09;;;;;;;7.80;3.33;;;16.30;81.80;;;;;;5071841;28;20232;-70
2023/08/27 11:05:05;;;;;;;6.03;3.00;;;16.20;82.00;;;;;;5076627;28;20184;-72
2023/08/27 11:07:33;;;;;;;5.10;3.00;;;16.20;82.00;;;;;;5071369;28;20174;-74
2023/08/27 11:10:04;;;;;;;6.63;3.27;;;16.10;82.10;;;;;;5071937;28;20187;-70
2023/08/27 11:12:36;;;;;;;5.90;3.47;;;16.10;82.10;;;;;;5071921;28;20185;-72
2023/08/27 11:15:14;;;;;;;3.67;3.30;;;16.00;82.50;;;;;;5074246;28;20197;-73
2023/08/27 11:17:43;;;;;;;5.53;3.90;;;16.00;82.60;;;;;;5066254;28;20200;-72
2023/08/27 11:20:30;;;;;;;5.63;3.80;;;16.00;82.70;;;;;;5070951;28;20266;-70
2023/08/27 11:23:09;;;;;;;7.03;3.57;;;15.90;82.90;;;;;;5068318;28;20190;-71
2023/08/27 11:25:37;;;;;;;6.10;3.97;;;15.90;82.90;;;;;;5070961;28;20185;-73
2023/08/27 11:28:07;;;;;;;5.13;3.30;;;15.90;82.90;;;;;;5070077;28;20660;-70
2023/08/27 11:30:34;;;;;;;5.43;3.50;;;15.90;83.00;;;;;;5074389;28;20190;-68
2023/08/27 11:33:02;;;;;;;7.97;3.47;;;15.90;82.60;;;;;;5069907;28;20228;-70
2023/08/27 11:35:29;;;;;;;5.70;3.53;;;15.80;82.70;;;;;;5068857;28;20227;-70
2023/08/27 11:37:57;;;;;;;5.63;3.33;;;15.80;82.60;;;;;;5068152;28;20197;-73
2023/08/27 11:40:27;;;;;;;6.80;3.43;;;15.70;82.80;;;;;;5070701;28;20209;-71
2023/08/27 11:42:56;;;;;;;6.17;3.70;;;15.70;83.10;;;;;;5068930;28;20602;-66
2023/08/27 11:45:36;;;;;;;6.63;4.20;;;15.50;83.00;;;;;;5073022;28;20188;-70
2023/08/27 11:48:08;;;;;;;4.20;3.63;;;15.50;83.50;;;;;;5070170;28;20721;-69
2023/08/27 11:50:40;;;;;;;5.90;4.70;;;15.40;83.80;;;;;;5072964;28;20576;-70
2023/08/27 11:53:07;;;;;;;7.63;4.80;;;15.40;84.00;;;;;;5069810;28;20276;-69
2023/08/27 11:55:35;;;;;;;5.63;4.70;;;15.30;84.40;;;;;;5070576;28;20252;-66
2023/08/27 11:58:06;;;;;;;9.87;4.67;;;15.30;84.40;;;;;;5071118;28;20274;-67
2023/08/27 12:00:33;;;;;;;7.53;4.70;;;15.30;84.50;;;;;;5071419;28;20179;-68
2023/08/27 12:03:03;;;;;;;8.23;5.00;;;15.20;84.60;;;;;;5070893;28;20202;-72
2023/08/27 12:05:33;;;;;;;6.27;5.00;;;15.20;84.60;;;;;;5070917;28;20537;-71
2023/08/27 12:08:08;;;;;;;6.60;5.13;;;15.20;84.90;;;;;;5072317;28;20517;-71
2023/08/27 12:10:44;;;;;;;7.57;5.20;;;15.20;85.00;;;;;;5070454;28;20178;-69
2023/08/27 12:13:11;;;;;;;7.17;5.40;;;15.10;85.00;;;;;;5069534;28;20233;-69
2023/08/27 12:15:39;;;;;;;9.10;6.20;;;15.00;85.10;;;;;;5068680;28;20574;-73
2023/08/27 12:18:10;;;;;;;6.37;5.53;;;15.00;85.10;;;;;;5068351;28;20262;-72
2023/08/27 12:20:37;;;;;;;7.33;5.60;;;15.00;85.10;;;;;;5066840;28;20175;-71
2023/08/27 12:23:13;;;;;;;6.97;5.37;;;15.00;85.40;;;;;;5067378;28;20211;-70
2023/08/27 12:25:54;;;;;;;9.53;5.50;;;14.90;85.30;;;;;;5071205;28;20223;-72
2023/08/27 12:28:22;;;;;;;6.30;5.70;;;14.90;85.40;;;;;;5066573;28;20175;-71
2023/08/27 12:30:53;;;;;;;8.47;6.00;;;14.80;85.50;;;;;;5068349;28;20302;-67
2023/08/27 12:33:36;;;;;;;9.10;5.97;;;14.80;85.40;;;;;;5066625;28;20217;-72
2023/08/27 12:36:07;;;;;;;8.77;5.77;;;14.80;85.60;;;;;;5070123;28;20221;-70
2023/08/27 12:38:35;;;;;;;8.30;6.30;;;14.80;85.60;;;;;;5070869;28;20186;-73
2023/08/27 12:41:02;;;;;;;11.43;7.23;;;14.80;85.70;;;;;;5071037;28;20586;-71
2023/08/27 12:43:30;;;;;;;9.30;6.67;;;14.60;85.90;;;;;;5070086;28;20241;-72
2023/08/27 12:45:57;;;;;;;8.73;6.23;;;14.50;85.90;;;;;;5065356;28;20202;-70
2023/08/27 12:48:24;;;;;;;9.77;6.40;;;14.40;86.20;;;;;;5068062;28;20171;-72
2023/08/27 12:50:52;;;;;;;10.60;7.10;;;14.40;86.40;;;;;;5066850;28;20214;-71
2023/08/27 12:53:19;;;;;;;8.97;7.00;;;14.40;86.50;;;;;;5066453;28;20278;-69
2023/08/27 12:55:47;;;;;;;9.57;6.70;;;14.40;86.80;;;;;;5070159;28;20673;-67
2023/08/27 12:58:14;;;;;;;10.57;7.40;;;14.30;86.70;;;;;;5070180;28;20229;-73